Wayne, Oklahoma
Current Conditions -  °F | °C
As of 10:15 AM on Monday 22 Dec 2014 (Local Time) from KPVJ Reporting Station
Overcast Overcast  
Wind Chill: 46°   Ceiling: 1800
Heat Index: 47°   Visibility: 10mi
Dew Point: 46°   Wind: 5mph
Humidity: 93%   Direction: 300°WNW
Pressure: 29.59"   Gusts: NA
Location:  34.92°N, 97.31°W
Report Text: KPVJ 221615Z AUTO 30004KT 10SM SCT007 OVC018 09/08 A2959 RMK AO2 T00860075
Loading
Personal Weather Stations






























Interactive Weather Map New forecast layout! Learn more

10-Day Weather Forecast

Advertisements
Track Severe Weather on mobile